sensor_id;sensor_type;location;lat;lon;timestamp;P1;durP1;ratioP1;P2;durP2;ratioP2
14007;SDS011;61651;45.508;12.232;2023-01-01T00:02:42;62.23;;;46.20;;
14007;SDS011;61651;45.508;12.232;2023-01-01T00:05:44;62.20;;;47.40;;
14007;SDS011;61651;45.508;12.232;2023-01-01T00:08:47;63.20;;;46.70;;
14007;SDS011;61651;45.508;12.232;2023-01-01T00:12:09;59.60;;;46.63;;
14007;SDS011;61651;45.508;12.232;2023-01-01T00:15:13;56.00;;;44.10;;
14007;SDS011;61651;45.508;12.232;2023-01-01T00:18:15;59.20;;;45.70;;
14007;SDS011;61651;45.508;12.232;2023-01-01T00:21:17;59.97;;;47.83;;
14007;SDS011;61651;45.508;12.232;2023-01-01T00:24:19;79.17;;;58.37;;
14007;SDS011;61651;45.508;12.232;2023-01-01T00:27:21;64.27;;;51.30;;
14007;SDS011;61651;45.508;12.232;2023-01-01T00:30:24;57.10;;;48.03;;
14007;SDS011;61651;45.508;12.232;2023-01-01T00:33:26;60.77;;;46.83;;
14007;SDS011;61651;45.508;12.232;2023-01-01T00:36:28;58.60;;;45.53;;
14007;SDS011;61651;45.508;12.232;2023-01-01T00:39:30;64.07;;;51.07;;
14007;SDS011;61651;45.508;12.232;2023-01-01T00:42:32;61.27;;;47.67;;
14007;SDS011;61651;45.508;12.232;2023-01-01T00:45:40;59.53;;;47.50;;
14007;SDS011;61651;45.508;12.232;2023-01-01T00:48:46;59.50;;;46.47;;
14007;SDS011;61651;45.508;12.232;2023-01-01T00:51:48;64.93;;;47.27;;
14007;SDS011;61651;45.508;12.232;2023-01-01T00:54:51;63.97;;;48.07;;
14007;SDS011;61651;45.508;12.232;2023-01-01T00:57:53;67.50;;;50.10;;
14007;SDS011;61651;45.508;12.232;2023-01-01T01:00:56;69.57;;;55.00;;
14007;SDS011;61651;45.508;12.232;2023-01-01T01:03:58;80.63;;;64.97;;
14007;SDS011;61651;45.508;12.232;2023-01-01T01:07:02;89.27;;;66.90;;
14007;SDS011;61651;45.508;12.232;2023-01-01T01:10:04;81.30;;;62.73;;
14007;SDS011;61651;45.508;12.232;2023-01-01T01:13:07;74.20;;;59.87;;
14007;SDS011;61651;45.508;12.232;2023-01-01T01:16:11;85.17;;;62.40;;
14007;SDS011;61651;45.508;12.232;2023-01-01T01:19:15;85.53;;;65.03;;
14007;SDS011;61651;45.508;12.232;2023-01-01T01:22:18;91.20;;;67.50;;
14007;SDS011;61651;45.508;12.232;2023-01-01T01:25:20;81.10;;;64.10;;
14007;SDS011;61651;45.508;12.232;2023-01-01T01:28:22;87.30;;;64.33;;
14007;SDS011;61651;45.508;12.232;2023-01-01T01:31:26;85.47;;;62.43;;
14007;SDS011;61651;45.508;12.232;2023-01-01T01:34:30;91.10;;;67.20;;
14007;SDS011;61651;45.508;12.232;2023-01-01T01:37:32;81.83;;;63.00;;
14007;SDS011;61651;45.508;12.232;2023-01-01T01:40:34;91.80;;;67.73;;
14007;SDS011;61651;45.508;12.232;2023-01-01T01:43:49;89.77;;;69.47;;
14007;SDS011;61651;45.508;12.232;2023-01-01T01:46:57;87.60;;;66.27;;
14007;SDS011;61651;45.508;12.232;2023-01-01T01:50:01;99.17;;;68.73;;
14007;SDS011;61651;45.508;12.232;2023-01-01T01:53:07;91.50;;;67.60;;
14007;SDS011;61651;45.508;12.232;2023-01-01T01:56:12;90.70;;;69.77;;
14007;SDS011;61651;45.508;12.232;2023-01-01T01:59:20;104.63;;;76.87;;
14007;SDS011;61651;45.508;12.232;2023-01-01T02:02:27;103.70;;;76.63;;
14007;SDS011;61651;45.508;12.232;2023-01-01T02:05:35;105.53;;;77.60;;
14007;SDS011;61651;45.508;12.232;2023-01-01T02:08:39;99.73;;;79.60;;
14007;SDS011;61651;45.508;12.232;2023-01-01T02:11:41;114.43;;;83.83;;
14007;SDS011;61651;45.508;12.232;2023-01-01T02:14:43;112.50;;;83.30;;
14007;SDS011;61651;45.508;12.232;2023-01-01T02:17:50;113.43;;;84.83;;
14007;SDS011;61651;45.508;12.232;2023-01-01T02:20:58;107.17;;;77.27;;
14007;SDS011;61651;45.508;12.232;2023-01-01T02:24:10;108.37;;;79.93;;
14007;SDS011;61651;45.508;12.232;2023-01-01T02:27:24;105.13;;;75.73;;
14007;SDS011;61651;45.508;12.232;2023-01-01T02:30:36;82.77;;;67.70;;
14007;SDS011;61651;45.508;12.232;2023-01-01T02:33:41;93.17;;;66.87;;
14007;SDS011;61651;45.508;12.232;2023-01-01T02:36:47;85.83;;;65.03;;
14007;SDS011;61651;45.508;12.232;2023-01-01T02:39:52;86.13;;;64.33;;
14007;SDS011;61651;45.508;12.232;2023-01-01T02:42:57;84.07;;;65.67;;
14007;SDS011;61651;45.508;12.232;2023-01-01T02:46:01;88.80;;;65.70;;
14007;SDS011;61651;45.508;12.232;2023-01-01T02:49:06;89.33;;;64.10;;
14007;SDS011;61651;45.508;12.232;2023-01-01T02:52:10;82.73;;;66.00;;
14007;SDS011;61651;45.508;12.232;2023-01-01T02:55:26;88.77;;;65.40;;
14007;SDS011;61651;45.508;12.232;2023-01-01T02:58:37;87.50;;;64.47;;
14007;SDS011;61651;45.508;12.232;2023-01-01T03:02:07;88.40;;;66.67;;
14007;SDS011;61651;45.508;12.232;2023-01-01T03:05:14;87.67;;;66.17;;
14007;SDS011;61651;45.508;12.232;2023-01-01T03:08:20;81.70;;;62.90;;
14007;SDS011;61651;45.508;12.232;2023-01-01T03:11:31;86.97;;;66.60;;
14007;SDS011;61651;45.508;12.232;2023-01-01T03:14:41;87.30;;;63.00;;
14007;SDS011;61651;45.508;12.232;2023-01-01T03:17:50;84.60;;;63.27;;
14007;SDS011;61651;45.508;12.232;2023-01-01T03:20:59;86.27;;;64.97;;
14007;SDS011;61651;45.508;12.232;2023-01-01T03:24:05;84.50;;;64.70;;
14007;SDS011;61651;45.508;12.232;2023-01-01T03:27:11;84.97;;;62.07;;
14007;SDS011;61651;45.508;12.232;2023-01-01T03:30:18;81.40;;;64.77;;
14007;SDS011;61651;45.508;12.232;2023-01-01T03:33:23;81.93;;;63.27;;
14007;SDS011;61651;45.508;12.232;2023-01-01T03:36:30;80.57;;;64.97;;
14007;SDS011;61651;45.508;12.232;2023-01-01T03:39:36;88.23;;;63.60;;
14007;SDS011;61651;45.508;12.232;2023-01-01T03:42:42;84.67;;;62.40;;
14007;SDS011;61651;45.508;12.232;2023-01-01T03:45:50;85.73;;;62.93;;
14007;SDS011;61651;45.508;12.232;2023-01-01T03:48:56;90.83;;;63.90;;
14007;SDS011;61651;45.508;12.232;2023-01-01T03:52:01;81.37;;;63.07;;
14007;SDS011;61651;45.508;12.232;2023-01-01T03:55:15;88.53;;;64.20;;
14007;SDS011;61651;45.508;12.232;2023-01-01T03:58:22;87.87;;;65.10;;
14007;SDS011;61651;45.508;12.232;2023-01-01T04:01:32;89.83;;;66.10;;
14007;SDS011;61651;45.508;12.232;2023-01-01T04:04:41;81.57;;;63.83;;
14007;SDS011;61651;45.508;12.232;2023-01-01T04:07:43;86.00;;;62.90;;
14007;SDS011;61651;45.508;12.232;2023-01-01T04:10:47;81.93;;;61.40;;
14007;SDS011;61651;45.508;12.232;2023-01-01T04:13:52;86.20;;;62.03;;
14007;SDS011;61651;45.508;12.232;2023-01-01T04:16:54;79.73;;;60.30;;
14007;SDS011;61651;45.508;12.232;2023-01-01T04:19:57;76.43;;;59.47;;
14007;SDS011;61651;45.508;12.232;2023-01-01T04:23:00;80.53;;;62.60;;
14007;SDS011;61651;45.508;12.232;2023-01-01T04:26:02;77.23;;;61.87;;
14007;SDS011;61651;45.508;12.232;2023-01-01T04:29:04;78.37;;;60.17;;
14007;SDS011;61651;45.508;12.232;2023-01-01T04:32:06;79.07;;;59.97;;
14007;SDS011;61651;45.508;12.232;2023-01-01T04:35:10;73.97;;;58.53;;
14007;SDS011;61651;45.508;12.232;2023-01-01T04:38:13;74.57;;;59.40;;
14007;SDS011;61651;45.508;12.232;2023-01-01T04:41:15;81.53;;;63.70;;
14007;SDS011;61651;45.508;12.232;2023-01-01T04:44:17;75.73;;;57.27;;
14007;SDS011;61651;45.508;12.232;2023-01-01T04:47:19;77.37;;;57.73;;
14007;SDS011;61651;45.508;12.232;2023-01-01T04:50:23;80.90;;;62.07;;
14007;SDS011;61651;45.508;12.232;2023-01-01T04:53:27;79.20;;;60.50;;
14007;SDS011;61651;45.508;12.232;2023-01-01T04:56:30;75.07;;;58.83;;
14007;SDS011;61651;45.508;12.232;2023-01-01T04:59:32;83.93;;;61.37;;
14007;SDS011;61651;45.508;12.232;2023-01-01T05:02:34;90.20;;;62.73;;
14007;SDS011;61651;45.508;12.232;2023-01-01T05:05:37;75.43;;;59.00;;
14007;SDS011;61651;45.508;12.232;2023-01-01T05:08:39;77.73;;;58.90;;
14007;SDS011;61651;45.508;12.232;2023-01-01T05:11:43;78.53;;;58.47;;
14007;SDS011;61651;45.508;12.232;2023-01-01T05:14:45;79.40;;;60.47;;
14007;SDS011;61651;45.508;12.232;2023-01-01T05:17:47;79.97;;;61.83;;
14007;SDS011;61651;45.508;12.232;2023-01-01T05:20:50;76.97;;;58.77;;
14007;SDS011;61651;45.508;12.232;2023-01-01T05:23:52;76.30;;;58.70;;
14007;SDS011;61651;45.508;12.232;2023-01-01T05:26:55;79.90;;;60.90;;
14007;SDS011;61651;45.508;12.232;2023-01-01T05:29:57;77.47;;;59.30;;
14007;SDS011;61651;45.508;12.232;2023-01-01T05:32:59;77.03;;;58.97;;
14007;SDS011;61651;45.508;12.232;2023-01-01T05:36:04;77.97;;;62.00;;
14007;SDS011;61651;45.508;12.232;2023-01-01T05:39:08;80.83;;;61.43;;
14007;SDS011;61651;45.508;12.232;2023-01-01T05:42:12;76.37;;;60.97;;
14007;SDS011;61651;45.508;12.232;2023-01-01T05:45:14;84.37;;;59.40;;
14007;SDS011;61651;45.508;12.232;2023-01-01T05:48:16;78.47;;;58.40;;
14007;SDS011;61651;45.508;12.232;2023-01-01T05:51:20;82.80;;;60.60;;
14007;SDS011;61651;45.508;12.232;2023-01-01T05:54:23;80.90;;;59.53;;
14007;SDS011;61651;45.508;12.232;2023-01-01T05:57:25;80.80;;;60.83;;
14007;SDS011;61651;45.508;12.232;2023-01-01T06:00:28;75.23;;;58.33;;
14007;SDS011;61651;45.508;12.232;2023-01-01T06:03:30;79.50;;;61.23;;
14007;SDS011;61651;45.508;12.232;2023-01-01T06:06:33;76.03;;;59.40;;
14007;SDS011;61651;45.508;12.232;2023-01-01T06:09:35;78.53;;;61.50;;
14007;SDS011;61651;45.508;12.232;2023-01-01T06:12:37;76.63;;;57.57;;
14007;SDS011;61651;45.508;12.232;2023-01-01T06:15:39;83.50;;;62.03;;
14007;SDS011;61651;45.508;12.232;2023-01-01T06:18:41;86.33;;;62.83;;
14007;SDS011;61651;45.508;12.232;2023-01-01T06:21:44;88.13;;;65.10;;
14007;SDS011;61651;45.508;12.232;2023-01-01T06:24:46;89.23;;;63.87;;
14007;SDS011;61651;45.508;12.232;2023-01-01T06:27:48;80.17;;;60.97;;
14007;SDS011;61651;45.508;12.232;2023-01-01T06:30:50;80.97;;;63.47;;
14007;SDS011;61651;45.508;12.232;2023-01-01T06:33:52;78.40;;;60.30;;
14007;SDS011;61651;45.508;12.232;2023-01-01T06:36:55;83.43;;;62.23;;
14007;SDS011;61651;45.508;12.232;2023-01-01T06:39:57;82.13;;;60.63;;
14007;SDS011;61651;45.508;12.232;2023-01-01T06:42:59;86.30;;;64.97;;
14007;SDS011;61651;45.508;12.232;2023-01-01T06:46:02;84.03;;;64.10;;
14007;SDS011;61651;45.508;12.232;2023-01-01T06:49:06;81.97;;;61.93;;
14007;SDS011;61651;45.508;12.232;2023-01-01T06:52:12;81.50;;;60.33;;
14007;SDS011;61651;45.508;12.232;2023-01-01T06:55:14;85.33;;;62.77;;
14007;SDS011;61651;45.508;12.232;2023-01-01T06:58:16;81.43;;;61.03;;
14007;SDS011;61651;45.508;12.232;2023-01-01T07:01:18;79.87;;;61.83;;
14007;SDS011;61651;45.508;12.232;2023-01-01T07:04:22;80.43;;;62.30;;
14007;SDS011;61651;45.508;12.232;2023-01-01T07:07:25;78.80;;;61.37;;
14007;SDS011;61651;45.508;12.232;2023-01-01T07:10:27;80.13;;;62.60;;
14007;SDS011;61651;45.508;12.232;2023-01-01T07:13:29;76.67;;;60.90;;
14007;SDS011;61651;45.508;12.232;2023-01-01T07:16:31;89.17;;;60.00;;
14007;SDS011;61651;45.508;12.232;2023-01-01T07:19:34;74.20;;;56.37;;
14007;SDS011;61651;45.508;12.232;2023-01-01T07:22:37;81.93;;;59.67;;
14007;SDS011;61651;45.508;12.232;2023-01-01T07:25:40;76.87;;;59.67;;
14007;SDS011;61651;45.508;12.232;2023-01-01T07:28:42;77.50;;;60.30;;
14007;SDS011;61651;45.508;12.232;2023-01-01T07:31:44;85.00;;;61.73;;
14007;SDS011;61651;45.508;12.232;2023-01-01T07:34:46;83.10;;;61.70;;
14007;SDS011;61651;45.508;12.232;2023-01-01T07:37:49;79.37;;;60.73;;
14007;SDS011;61651;45.508;12.232;2023-01-01T07:40:51;80.40;;;60.30;;
14007;SDS011;61651;45.508;12.232;2023-01-01T07:43:53;84.70;;;62.50;;
14007;SDS011;61651;45.508;12.232;2023-01-01T07:47:00;90.70;;;68.10;;
14007;SDS011;61651;45.508;12.232;2023-01-01T07:50:03;93.57;;;65.47;;
14007;SDS011;61651;45.508;12.232;2023-01-01T07:53:07;88.93;;;64.40;;
14007;SDS011;61651;45.508;12.232;2023-01-01T07:56:09;79.00;;;59.70;;
14007;SDS011;61651;45.508;12.232;2023-01-01T07:59:11;81.03;;;58.70;;
14007;SDS011;61651;45.508;12.232;2023-01-01T08:02:13;75.00;;;57.40;;
14007;SDS011;61651;45.508;12.232;2023-01-01T08:05:15;78.23;;;59.23;;
14007;SDS011;61651;45.508;12.232;2023-01-01T08:08:19;74.13;;;57.80;;
14007;SDS011;61651;45.508;12.232;2023-01-01T08:11:21;75.00;;;58.57;;
14007;SDS011;61651;45.508;12.232;2023-01-01T08:14:23;79.23;;;59.17;;
14007;SDS011;61651;45.508;12.232;2023-01-01T08:17:25;76.73;;;60.53;;
14007;SDS011;61651;45.508;12.232;2023-01-01T08:20:28;78.20;;;60.13;;
14007;SDS011;61651;45.508;12.232;2023-01-01T08:23:35;72.97;;;56.77;;
14007;SDS011;61651;45.508;12.232;2023-01-01T08:26:37;72.37;;;55.60;;
14007;SDS011;61651;45.508;12.232;2023-01-01T08:29:39;74.97;;;57.90;;
14007;SDS011;61651;45.508;12.232;2023-01-01T08:32:41;71.17;;;55.07;;
14007;SDS011;61651;45.508;12.232;2023-01-01T08:35:43;72.83;;;55.83;;
14007;SDS011;61651;45.508;12.232;2023-01-01T08:38:47;69.30;;;55.10;;
14007;SDS011;61651;45.508;12.232;2023-01-01T08:41:49;63.77;;;51.37;;
14007;SDS011;61651;45.508;12.232;2023-01-01T08:44:51;65.07;;;51.27;;
14007;SDS011;61651;45.508;12.232;2023-01-01T08:47:53;71.17;;;55.23;;
14007;SDS011;61651;45.508;12.232;2023-01-01T08:50:55;65.40;;;48.93;;
14007;SDS011;61651;45.508;12.232;2023-01-01T08:54:00;74.47;;;57.70;;
14007;SDS011;61651;45.508;12.232;2023-01-01T08:57:02;67.60;;;53.30;;
14007;SDS011;61651;45.508;12.232;2023-01-01T09:00:05;66.53;;;51.37;;
14007;SDS011;61651;45.508;12.232;2023-01-01T09:03:08;62.60;;;48.60;;
14007;SDS011;61651;45.508;12.232;2023-01-01T09:06:10;57.37;;;45.20;;
14007;SDS011;61651;45.508;12.232;2023-01-01T09:09:14;61.33;;;46.13;;
14007;SDS011;61651;45.508;12.232;2023-01-01T09:12:16;55.53;;;42.03;;
14007;SDS011;61651;45.508;12.232;2023-01-01T09:15:18;56.23;;;41.33;;
14007;SDS011;61651;45.508;12.232;2023-01-01T09:18:20;54.90;;;41.13;;
14007;SDS011;61651;45.508;12.232;2023-01-01T09:21:22;53.23;;;43.97;;
14007;SDS011;61651;45.508;12.232;2023-01-01T09:24:25;58.90;;;44.47;;
14007;SDS011;61651;45.508;12.232;2023-01-01T09:27:27;57.77;;;43.97;;
14007;SDS011;61651;45.508;12.232;2023-01-01T09:30:29;60.53;;;45.20;;
14007;SDS011;61651;45.508;12.232;2023-01-01T09:33:32;54.93;;;44.00;;
14007;SDS011;61651;45.508;12.232;2023-01-01T09:36:34;50.10;;;40.60;;
14007;SDS011;61651;45.508;12.232;2023-01-01T09:39:38;54.20;;;41.47;;
14007;SDS011;61651;45.508;12.232;2023-01-01T09:42:41;49.20;;;35.78;;
14007;SDS011;61651;45.508;12.232;2023-01-01T09:45:51;54.97;;;40.77;;
14007;SDS011;61651;45.508;12.232;2023-01-01T09:48:57;50.40;;;40.83;;
14007;SDS011;61651;45.508;12.232;2023-01-01T09:52:02;53.38;;;42.25;;
14007;SDS011;61651;45.508;12.232;2023-01-01T09:55:10;55.60;;;41.60;;
14007;SDS011;61651;45.508;12.232;2023-01-01T09:58:18;49.70;;;38.87;;
14007;SDS011;61651;45.508;12.232;2023-01-01T10:01:27;47.67;;;36.67;;
14007;SDS011;61651;45.508;12.232;2023-01-01T10:04:45;47.73;;;38.07;;
14007;SDS011;61651;45.508;12.232;2023-01-01T10:07:59;45.77;;;35.50;;
14007;SDS011;61651;45.508;12.232;2023-01-01T10:11:09;45.93;;;35.27;;
14007;SDS011;61651;45.508;12.232;2023-01-01T10:14:20;47.03;;;36.73;;
14007;SDS011;61651;45.508;12.232;2023-01-01T10:17:26;49.13;;;37.50;;
14007;SDS011;61651;45.508;12.232;2023-01-01T10:20:35;49.40;;;38.05;;
14007;SDS011;61651;45.508;12.232;2023-01-01T10:23:39;47.38;;;37.45;;
14007;SDS011;61651;45.508;12.232;2023-01-01T10:26:46;49.97;;;37.30;;
14007;SDS011;61651;45.508;12.232;2023-01-01T10:29:49;47.85;;;36.75;;
14007;SDS011;61651;45.508;12.232;2023-01-01T10:32:53;45.85;;;33.72;;
14007;SDS011;61651;45.508;12.232;2023-01-01T10:35:56;46.42;;;35.30;;
14007;SDS011;61651;45.508;12.232;2023-01-01T10:38:58;44.75;;;35.47;;
14007;SDS011;61651;45.508;12.232;2023-01-01T10:42:01;43.27;;;35.07;;
14007;SDS011;61651;45.508;12.232;2023-01-01T10:45:04;46.67;;;36.08;;
14007;SDS011;61651;45.508;12.232;2023-01-01T10:48:10;47.55;;;34.78;;
14007;SDS011;61651;45.508;12.232;2023-01-01T10:51:15;42.33;;;32.30;;
14007;SDS011;61651;45.508;12.232;2023-01-01T10:54:30;42.60;;;32.65;;
14007;SDS011;61651;45.508;12.232;2023-01-01T10:57:36;45.35;;;33.17;;
14007;SDS011;61651;45.508;12.232;2023-01-01T11:00:39;46.95;;;34.80;;
14007;SDS011;61651;45.508;12.232;2023-01-01T11:03:54;47.63;;;34.80;;
14007;SDS011;61651;45.508;12.232;2023-01-01T11:06:58;40.90;;;33.05;;
14007;SDS011;61651;45.508;12.232;2023-01-01T11:10:01;42.97;;;32.10;;
14007;SDS011;61651;45.508;12.232;2023-01-01T11:13:12;44.25;;;34.60;;
14007;SDS011;61651;45.508;12.232;2023-01-01T11:16:18;42.97;;;32.00;;
14007;SDS011;61651;45.508;12.232;2023-01-01T11:19:22;44.58;;;34.42;;
14007;SDS011;61651;45.508;12.232;2023-01-01T11:22:36;48.00;;;36.08;;
14007;SDS011;61651;45.508;12.232;2023-01-01T11:25:40;45.75;;;35.70;;
14007;SDS011;61651;45.508;12.232;2023-01-01T11:29:04;49.80;;;35.92;;
14007;SDS011;61651;45.508;12.232;2023-01-01T11:32:20;46.60;;;34.83;;
14007;SDS011;61651;45.508;12.232;2023-01-01T11:35:25;43.83;;;34.85;;
14007;SDS011;61651;45.508;12.232;2023-01-01T11:38:29;42.85;;;33.78;;
14007;SDS011;61651;45.508;12.232;2023-01-01T11:41:39;43.90;;;35.75;;
14007;SDS011;61651;45.508;12.232;2023-01-01T11:44:44;49.33;;;37.30;;
14007;SDS011;61651;45.508;12.232;2023-01-01T11:47:50;46.88;;;37.25;;
14007;SDS011;61651;45.508;12.232;2023-01-01T11:50:56;48.90;;;37.03;;
14007;SDS011;61651;45.508;12.232;2023-01-01T11:54:08;48.78;;;36.65;;
14007;SDS011;61651;45.508;12.232;2023-01-01T11:57:13;49.75;;;37.97;;
14007;SDS011;61651;45.508;12.232;2023-01-01T12:00:20;49.53;;;37.25;;
14007;SDS011;61651;45.508;12.232;2023-01-01T12:03:23;45.80;;;34.65;;
14007;SDS011;61651;45.508;12.232;2023-01-01T12:06:28;50.20;;;36.95;;
14007;SDS011;61651;45.508;12.232;2023-01-01T12:09:36;50.08;;;36.95;;
14007;SDS011;61651;45.508;12.232;2023-01-01T12:12:41;46.47;;;36.17;;
14007;SDS011;61651;45.508;12.232;2023-01-01T12:15:50;51.60;;;40.13;;
14007;SDS011;61651;45.508;12.232;2023-01-01T12:18:59;51.50;;;38.88;;
14007;SDS011;61651;45.508;12.232;2023-01-01T12:22:13;55.22;;;40.08;;
14007;SDS011;61651;45.508;12.232;2023-01-01T12:25:17;52.80;;;41.30;;
14007;SDS011;61651;45.508;12.232;2023-01-01T12:28:23;57.88;;;42.50;;
14007;SDS011;61651;45.508;12.232;2023-01-01T12:31:36;60.08;;;43.40;;
14007;SDS011;61651;45.508;12.232;2023-01-01T12:34:45;59.15;;;43.58;;
14007;SDS011;61651;45.508;12.232;2023-01-01T12:37:59;53.90;;;40.22;;
14007;SDS011;61651;45.508;12.232;2023-01-01T12:41:07;58.40;;;42.63;;
14007;SDS011;61651;45.508;12.232;2023-01-01T12:44:15;62.42;;;45.35;;
14007;SDS011;61651;45.508;12.232;2023-01-01T12:47:30;64.43;;;45.65;;
14007;SDS011;61651;45.508;12.232;2023-01-01T12:50:38;64.78;;;47.75;;
14007;SDS011;61651;45.508;12.232;2023-01-01T12:53:48;64.90;;;46.50;;
14007;SDS011;61651;45.508;12.232;2023-01-01T12:56:59;64.93;;;48.83;;
14007;SDS011;61651;45.508;12.232;2023-01-01T13:00:10;64.78;;;47.53;;
14007;SDS011;61651;45.508;12.232;2023-01-01T13:03:17;71.22;;;49.15;;
14007;SDS011;61651;45.508;12.232;2023-01-01T13:06:23;68.35;;;49.38;;
14007;SDS011;61651;45.508;12.232;2023-01-01T13:09:29;64.55;;;48.42;;
14007;SDS011;61651;45.508;12.232;2023-01-01T13:12:35;65.72;;;46.97;;
14007;SDS011;61651;45.508;12.232;2023-01-01T13:15:51;65.15;;;46.40;;
14007;SDS011;61651;45.508;12.232;2023-01-01T13:18:56;62.50;;;43.83;;
14007;SDS011;61651;45.508;12.232;2023-01-01T13:21:58;59.90;;;43.45;;
14007;SDS011;61651;45.508;12.232;2023-01-01T13:25:23;60.47;;;43.85;;
14007;SDS011;61651;45.508;12.232;2023-01-01T13:28:25;69.15;;;50.70;;
14007;SDS011;61651;45.508;12.232;2023-01-01T13:31:38;66.18;;;49.55;;
14007;SDS011;61651;45.508;12.232;2023-01-01T13:35:02;68.32;;;49.00;;
14007;SDS011;61651;45.508;12.232;2023-01-01T13:41:48;61.10;;;45.08;;
14007;SDS011;61651;45.508;12.232;2023-01-01T13:44:50;61.22;;;46.67;;
14007;SDS011;61651;45.508;12.232;2023-01-01T13:51:24;70.05;;;49.90;;
14007;SDS011;61651;45.508;12.232;2023-01-01T13:58:36;70.22;;;49.53;;
14007;SDS011;61651;45.508;12.232;2023-01-01T14:01:57;64.13;;;47.22;;
14007;SDS011;61651;45.508;12.232;2023-01-01T14:05:13;64.20;;;46.97;;
14007;SDS011;61651;45.508;12.232;2023-01-01T14:08:25;63.13;;;44.83;;
14007;SDS011;61651;45.508;12.232;2023-01-01T14:11:29;60.67;;;43.65;;
14007;SDS011;61651;45.508;12.232;2023-01-01T14:14:32;66.75;;;46.45;;
14007;SDS011;61651;45.508;12.232;2023-01-01T14:17:35;59.75;;;45.20;;
14007;SDS011;61651;45.508;12.232;2023-01-01T14:20:39;57.72;;;42.47;;
14007;SDS011;61651;45.508;12.232;2023-01-01T14:23:43;62.45;;;44.22;;
14007;SDS011;61651;45.508;12.232;2023-01-01T14:26:47;66.60;;;45.38;;
14007;SDS011;61651;45.508;12.232;2023-01-01T14:29:51;60.90;;;43.03;;
14007;SDS011;61651;45.508;12.232;2023-01-01T14:32:54;63.38;;;46.42;;
14007;SDS011;61651;45.508;12.232;2023-01-01T14:35:57;64.70;;;46.75;;
14007;SDS011;61651;45.508;12.232;2023-01-01T14:39:01;69.00;;;45.83;;
14007;SDS011;61651;45.508;12.232;2023-01-01T14:42:03;64.88;;;44.83;;
14007;SDS011;61651;45.508;12.232;2023-01-01T14:45:13;60.17;;;44.97;;
14007;SDS011;61651;45.508;12.232;2023-01-01T14:48:16;64.38;;;46.10;;
14007;SDS011;61651;45.508;12.232;2023-01-01T14:51:21;72.32;;;46.10;;
14007;SDS011;61651;45.508;12.232;2023-01-01T14:54:25;64.57;;;45.13;;
14007;SDS011;61651;45.508;12.232;2023-01-01T14:57:32;61.13;;;45.05;;
14007;SDS011;61651;45.508;12.232;2023-01-01T15:00:37;63.20;;;45.08;;
14007;SDS011;61651;45.508;12.232;2023-01-01T15:03:39;63.42;;;44.63;;
14007;SDS011;61651;45.508;12.232;2023-01-01T15:06:41;59.28;;;43.50;;
14007;SDS011;61651;45.508;12.232;2023-01-01T15:09:43;63.88;;;44.42;;
14007;SDS011;61651;45.508;12.232;2023-01-01T15:12:45;65.18;;;46.83;;
14007;SDS011;61651;45.508;12.232;2023-01-01T15:15:48;64.93;;;44.28;;
14007;SDS011;61651;45.508;12.232;2023-01-01T15:18:51;58.00;;;41.42;;
14007;SDS011;61651;45.508;12.232;2023-01-01T15:21:56;56.70;;;42.08;;
14007;SDS011;61651;45.508;12.232;2023-01-01T15:24:59;54.40;;;38.35;;
14007;SDS011;61651;45.508;12.232;2023-01-01T15:28:02;59.65;;;38.60;;
14007;SDS011;61651;45.508;12.232;2023-01-01T15:31:06;51.92;;;38.72;;
14007;SDS011;61651;45.508;12.232;2023-01-01T15:34:15;55.20;;;37.97;;
14007;SDS011;61651;45.508;12.232;2023-01-01T15:37:26;53.28;;;37.88;;
14007;SDS011;61651;45.508;12.232;2023-01-01T15:40:33;58.42;;;39.15;;
14007;SDS011;61651;45.508;12.232;2023-01-01T15:43:36;53.70;;;37.20;;
14007;SDS011;61651;45.508;12.232;2023-01-01T15:46:43;51.08;;;35.28;;
14007;SDS011;61651;45.508;12.232;2023-01-01T15:49:46;51.95;;;37.28;;
14007;SDS011;61651;45.508;12.232;2023-01-01T15:52:48;51.30;;;36.17;;
14007;SDS011;61651;45.508;12.232;2023-01-01T15:55:53;55.45;;;39.28;;
14007;SDS011;61651;45.508;12.232;2023-01-01T15:58:58;53.72;;;37.05;;
14007;SDS011;61651;45.508;12.232;2023-01-01T16:02:04;51.55;;;37.40;;
14007;SDS011;61651;45.508;12.232;2023-01-01T16:05:13;50.50;;;36.05;;
14007;SDS011;61651;45.508;12.232;2023-01-01T16:08:17;52.78;;;36.50;;
14007;SDS011;61651;45.508;12.232;2023-01-01T16:11:20;50.87;;;36.27;;
14007;SDS011;61651;45.508;12.232;2023-01-01T16:14:22;55.33;;;36.15;;
14007;SDS011;61651;45.508;12.232;2023-01-01T16:17:25;51.10;;;37.50;;
14007;SDS011;61651;45.508;12.232;2023-01-01T16:20:27;54.63;;;36.97;;
14007;SDS011;61651;45.508;12.232;2023-01-01T16:23:29;51.85;;;35.00;;
14007;SDS011;61651;45.508;12.232;2023-01-01T16:26:32;47.15;;;34.83;;
14007;SDS011;61651;45.508;12.232;2023-01-01T16:29:34;52.83;;;35.75;;
14007;SDS011;61651;45.508;12.232;2023-01-01T16:32:38;50.97;;;35.30;;
14007;SDS011;61651;45.508;12.232;2023-01-01T16:35:40;46.55;;;31.30;;
14007;SDS011;61651;45.508;12.232;2023-01-01T16:38:42;48.85;;;35.95;;
14007;SDS011;61651;45.508;12.232;2023-01-01T16:41:44;52.55;;;35.22;;
14007;SDS011;61651;45.508;12.232;2023-01-01T16:44:46;48.47;;;35.30;;
14007;SDS011;61651;45.508;12.232;2023-01-01T16:47:49;52.75;;;36.42;;
14007;SDS011;61651;45.508;12.232;2023-01-01T16:50:52;48.87;;;35.47;;
14007;SDS011;61651;45.508;12.232;2023-01-01T16:53:54;53.80;;;36.22;;
14007;SDS011;61651;45.508;12.232;2023-01-01T16:56:56;52.15;;;35.55;;
14007;SDS011;61651;45.508;12.232;2023-01-01T16:59:58;49.42;;;35.20;;
14007;SDS011;61651;45.508;12.232;2023-01-01T17:03:01;51.67;;;33.88;;
14007;SDS011;61651;45.508;12.232;2023-01-01T17:06:04;53.10;;;34.60;;
14007;SDS011;61651;45.508;12.232;2023-01-01T17:09:06;49.35;;;34.45;;
14007;SDS011;61651;45.508;12.232;2023-01-01T17:12:08;42.28;;;31.83;;
14007;SDS011;61651;45.508;12.232;2023-01-01T17:15:10;47.97;;;32.60;;
14007;SDS011;61651;45.508;12.232;2023-01-01T17:18:14;44.28;;;32.28;;
14007;SDS011;61651;45.508;12.232;2023-01-01T17:21:16;47.33;;;32.13;;
14007;SDS011;61651;45.508;12.232;2023-01-01T17:24:19;47.80;;;32.65;;
14007;SDS011;61651;45.508;12.232;2023-01-01T17:27:21;44.78;;;31.65;;
14007;SDS011;61651;45.508;12.232;2023-01-01T17:30:23;47.65;;;30.42;;
14007;SDS011;61651;45.508;12.232;2023-01-01T17:33:26;48.10;;;32.80;;
14007;SDS011;61651;45.508;12.232;2023-01-01T17:36:29;49.38;;;32.40;;
14007;SDS011;61651;45.508;12.232;2023-01-01T17:39:31;47.25;;;30.17;;
14007;SDS011;61651;45.508;12.232;2023-01-01T17:42:33;46.70;;;31.07;;
14007;SDS011;61651;45.508;12.232;2023-01-01T17:45:35;39.60;;;29.02;;
14007;SDS011;61651;45.508;12.232;2023-01-01T17:48:39;42.75;;;29.88;;
14007;SDS011;61651;45.508;12.232;2023-01-01T17:51:41;41.08;;;28.33;;
14007;SDS011;61651;45.508;12.232;2023-01-01T17:54:43;47.65;;;30.45;;
14007;SDS011;61651;45.508;12.232;2023-01-01T17:57:45;39.40;;;29.43;;